Time;durP1;ratioP1;P1;durP2;ratioP2;P2;SDS_P1;SDS_P2;PMS_P1;PMS_P2;Temp;Humidity;BMP_temperature;BMP_pressure;BME280_temperature;BME280_humidity;BME280_pressure;Samples;Min_cycle;Max_cycle;Signal;HPM_P1;HPM_P2
2023/06/08 06:06:38;;;;;;;24.25;18.77;;;;;;;18.62;100.00;100217.13;6659535;26;281924;-90
2023/06/08 06:13:19;;;;;;;19.60;17.58;;;;;;;18.58;100.00;100228.16;6690198;26;20064;-89
2023/06/08 06:16:22;;;;;;;24.48;20.23;;;;;;;18.69;100.00;100226.34;6697633;26;34429;-92
2023/06/08 06:19:24;;;;;;;23.67;19.35;;;;;;;18.91;100.00;100227.16;6700744;26;34081;-91
2023/06/08 06:22:27;;;;;;;22.05;18.20;;;;;;;18.90;100.00;100231.69;6695760;26;34003;-89
2023/06/08 06:25:30;;;;;;;22.30;18.50;;;;;;;18.96;100.00;100239.22;6690198;26;34613;-89
2023/06/08 06:28:33;;;;;;;22.50;17.77;;;;;;;19.02;100.00;100228.91;6696958;26;34609;-89
2023/06/08 06:31:36;;;;;;;25.70;18.15;;;;;;;19.28;100.00;100233.84;6690419;26;34361;-89
2023/06/08 06:34:38;;;;;;;24.48;18.65;;;;;;;19.28;100.00;100237.41;6690553;26;33360;-90
2023/06/08 06:37:41;;;;;;;23.40;17.87;;;;;;;19.43;100.00;100231.62;6690339;26;33745;-88
2023/06/08 06:40:44;;;;;;;22.83;17.60;;;;;;;19.30;100.00;100237.25;6688780;26;33737;-87
2023/06/08 06:43:46;;;;;;;20.20;17.98;;;;;;;19.38;100.00;100232.03;6689718;26;33790;-87
2023/06/08 06:46:49;;;;;;;22.33;17.60;;;;;;;19.07;100.00;100227.53;6689799;26;33665;-88
2023/06/08 06:49:52;;;;;;;20.55;17.35;;;;;;;19.34;100.00;100231.47;6689149;26;33504;-88
2023/06/08 06:52:55;;;;;;;20.65;17.15;;;;;;;19.43;100.00;100226.25;6689229;26;33868;-89
2023/06/08 06:55:57;;;;;;;20.52;15.82;;;;;;;19.49;100.00;100229.25;6686799;26;33690;-88
2023/06/08 06:59:01;;;;;;;23.77;17.48;;;;;;;19.65;100.00;100239.47;6688033;26;33797;-89
2023/06/08 07:02:03;;;;;;;25.35;18.45;;;;;;;19.64;100.00;100236.91;6687635;26;33738;-88
2023/06/08 07:05:07;;;;;;;20.52;18.20;;;;;;;19.75;100.00;100235.91;6689918;26;33756;-88
2023/06/08 07:08:10;;;;;;;20.65;18.45;;;;;;;19.42;100.00;100227.22;6689392;26;34297;-86
2023/06/08 07:11:13;;;;;;;22.08;17.85;;;;;;;19.11;100.00;100231.66;6688617;26;33771;-89
2023/06/08 07:14:15;;;;;;;20.95;17.58;;;;;;;19.08;100.00;100228.41;6687706;26;33808;-90
2023/06/08 07:17:18;;;;;;;22.02;17.75;;;;;;;19.21;100.00;100231.69;6691511;26;34006;-88
2023/06/08 07:20:21;;;;;;;25.05;16.80;;;;;;;19.22;100.00;100228.00;6692746;26;34192;-91
2023/06/08 07:23:42;;;;;;;22.62;17.17;;;;;;;19.21;100.00;100233.56;6688364;26;34592;-92
2023/06/08 07:26:56;;;;;;;23.45;18.23;;;;;;;19.13;100.00;100229.69;6663334;26;33313;-89
2023/06/08 07:29:59;;;;;;;28.48;19.25;;;;;;;18.77;100.00;100225.69;6696855;26;33699;-89
2023/06/08 07:33:03;;;;;;;23.60;18.70;;;;;;;18.80;100.00;100222.75;6693724;26;33522;-90
2023/06/08 07:36:06;;;;;;;24.87;18.85;;;;;;;18.83;100.00;100231.38;6694858;26;33975;-89
2023/06/08 07:39:09;;;;;;;21.77;18.37;;;;;;;18.85;100.00;100237.47;6691596;26;33684;-87
2023/06/08 07:42:13;;;;;;;27.37;19.45;;;;;;;18.74;100.00;100234.88;6692503;26;34236;-87
2023/06/08 07:45:17;;;;;;;25.33;18.92;;;;;;;18.74;100.00;100234.88;6695348;26;33720;-90
2023/06/08 07:48:20;;;;;;;25.77;20.12;;;;;;;18.90;100.00;100233.53;6694033;26;34093;-89
2023/06/08 07:51:23;;;;;;;26.23;19.62;;;;;;;18.92;100.00;100234.25;6692281;26;33789;-88
2023/06/08 07:54:27;;;;;;;25.33;20.05;;;;;;;18.94;100.00;100233.13;6691834;26;35182;-91
2023/06/08 07:57:31;;;;;;;27.25;20.25;;;;;;;19.05;100.00;100232.22;6691640;26;34360;-89
2023/06/08 08:04:42;;;;;;;24.83;19.80;;;;;;;18.91;100.00;100227.16;6691572;26;20415;-91
2023/06/08 08:14:44;;;;;;;27.48;20.52;;;;;;;18.93;100.00;100225.19;6698323;26;35013;-89
2023/06/08 08:21:29;;;;;;;26.33;19.95;;;;;;;19.33;100.00;100221.69;6692184;26;20082;-91
2023/06/08 08:24:35;;;;;;;22.17;18.65;;;;;;;19.53;100.00;100224.44;6691837;26;33688;-90
2023/06/08 08:27:38;;;;;;;28.08;20.73;;;;;;;19.47;100.00;100222.28;6690312;26;33633;-88
2023/06/08 08:30:41;;;;;;;23.50;20.35;;;;;;;19.53;100.00;100225.25;6688012;26;34448;-87
2023/06/08 08:33:47;;;;;;;26.95;20.65;;;;;;;19.34;100.00;100231.47;6688353;26;34163;-87
2023/06/08 08:36:51;;;;;;;26.25;19.08;;;;;;;19.26;100.00;100233.97;6688714;26;34179;-87
2023/06/08 08:39:53;;;;;;;22.15;16.08;;;;;;;19.23;100.00;100229.75;6688397;26;34326;-87
2023/06/08 08:43:10;;;;;;;20.35;14.80;;;;;;;19.18;100.00;100236.50;6686716;26;33574;-88
2023/06/08 08:46:13;;;;;;;20.75;15.90;;;;;;;18.89;100.00;100230.00;6687081;26;33929;-87
2023/06/08 08:49:17;;;;;;;20.42;15.82;;;;;;;18.77;100.00;100221.19;6688697;26;34520;-88
2023/06/08 08:52:20;;;;;;;20.42;17.58;;;;;;;18.65;100.00;100224.94;6689066;26;34435;-90
2023/06/08 08:55:27;;;;;;;31.23;22.33;;;;;;;18.78;100.00;100216.63;6691345;26;34011;-90
2023/06/08 08:58:38;;;;;;;26.40;21.30;;;;;;;18.93;100.00;100219.81;6694138;26;34542;-91
2023/06/08 09:32:33;;;;;;;23.20;18.00;;;;;;;21.24;100.00;100196.97;6689726;26;20070;-92
2023/06/08 09:39:22;;;;;;;17.67;15.05;;;;;;;22.18;100.00;100191.31;6690218;26;20043;-89
2023/06/08 09:42:43;;;;;;;18.67;16.08;;;;;;;22.04;100.00;100198.97;6690750;26;34222;-91
2023/06/08 10:00:45;;;;;;;20.45;17.60;;;;;;;23.46;100.00;100178.97;6609111;26;20047;-91
2023/06/08 10:03:51;;;;;;;21.02;17.08;;;;;;;22.90;100.00;100182.16;6618721;27;35407;-90
2023/06/08 10:07:01;;;;;;;16.98;14.50;;;;;;;22.97;100.00;100172.37;6611538;27;34190;-91
2023/06/08 10:10:18;;;;;;;16.85;14.63;;;;;;;22.98;100.00;100173.22;6616395;26;34660;-92
2023/06/08 10:17:12;;;;;;;18.10;13.57;;;;;;;23.78;100.00;100149.44;6663829;26;20052;-89
2023/06/08 10:20:16;;;;;;;16.85;14.13;;;;;;;25.44;100.00;100146.22;6671764;26;33825;-89
2023/06/08 10:23:19;;;;;;;15.55;13.82;;;;;;;26.59;100.00;100140.84;6672009;26;34901;-90
2023/06/08 10:26:23;;;;;;;12.52;11.23;;;;;;;28.35;100.00;100143.53;6677927;26;34955;-91
2023/06/08 11:31:06;;;;;;;19.27;11.77;;;;;;;18.80;100.00;100110.72;6655668;26;20066;-88
2023/06/08 11:45:23;;;;;;;14.85;10.38;;;;;;;18.53;100.00;100109.50;6629690;26;20043;-91
2023/06/08 11:48:26;;;;;;;18.83;13.30;;;;;;;18.55;100.00;100096.78;6647835;26;34151;-90
2023/06/08 11:55:22;;;;;;;14.68;11.35;;;;;;;18.92;100.00;100089.13;6665334;26;20322;-90
2023/06/08 12:02:12;;;;;;;12.32;10.98;;;;;;;19.13;100.00;100078.31;6658577;26;20062;-90
2023/06/08 12:05:24;;;;;;;12.20;9.45;;;;;;;19.19;100.00;100087.63;6662967;26;33852;-89
2023/06/08 12:08:27;;;;;;;12.23;10.93;;;;;;;19.13;100.00;100081.81;6661759;26;33728;-89
2023/06/08 12:11:35;;;;;;;14.30;11.27;;;;;;;19.23;100.00;100068.41;6660943;26;33829;-90
2023/06/08 12:14:48;;;;;;;12.95;11.30;;;;;;;19.34;100.00;100064.72;6662632;26;34126;-92
2023/06/08 12:17:51;;;;;;;11.30;9.32;;;;;;;19.54;100.00;100070.09;6661775;26;33600;-89
2023/06/08 12:39:25;;;;;;;20.30;10.80;;;;;;;20.43;100.00;100076.16;6637663;26;33542;-90
2023/06/08 13:01:42;;;;;;;10.38;9.23;;;;;;;20.39;100.00;100050.53;6675795;26;20305;-90
2023/06/08 13:15:55;;;;;;;10.05;8.73;;;;;;;21.71;100.00;100052.09;6688823;26;20077;-89
2023/06/08 13:18:58;;;;;;;13.85;10.10;;;;;;;22.23;100.00;100063.87;6689924;26;34433;-88
2023/06/08 13:22:00;;;;;;;11.25;9.57;;;;;;;22.03;100.00;100067.63;6695742;26;33506;-88
2023/06/08 13:25:05;;;;;;;10.50;9.15;;;;;;;21.92;100.00;100068.75;6694893;26;35104;-88
2023/06/08 13:28:09;;;;;;;14.38;10.18;;;;;;;21.75;100.00;100066.94;6693518;26;33776;-88
2023/06/08 13:31:12;;;;;;;12.05;10.23;;;;;;;21.73;100.00;100072.47;6703660;26;33560;-87
2023/06/08 13:34:14;;;;;;;10.48;9.38;;;;;;;21.26;100.00;100069.03;6699354;26;34120;-88
2023/06/08 13:37:17;;;;;;;10.13;9.07;;;;;;;21.33;100.00;100058.50;6690887;26;34699;-87
2023/06/08 13:40:20;;;;;;;10.15;8.60;;;;;;;21.37;100.00;100065.25;6691688;26;33773;-88
2023/06/08 13:43:23;;;;;;;9.90;8.90;;;;;;;21.77;100.00;100054.16;6692291;26;34581;-88
2023/06/08 13:46:26;;;;;;;7.32;6.60;;;;;;;21.96;100.00;100058.47;6692505;26;33373;-87
2023/06/08 13:49:29;;;;;;;8.35;7.47;;;;;;;21.93;100.00;100056.94;6692036;26;34013;-88
2023/06/08 13:52:33;;;;;;;10.02;8.15;;;;;;;22.24;100.00;100043.94;6697934;26;34383;-87
2023/06/08 13:55:36;;;;;;;8.40;7.60;;;;;;;22.51;100.00;100044.75;6710034;26;34845;-87
2023/06/08 13:58:39;;;;;;;8.70;7.80;;;;;;;22.46;100.00;100039.81;6693319;26;33496;-87
2023/06/08 14:01:42;;;;;;;7.93;7.12;;;;;;;22.65;100.00;100033.34;6694943;26;33793;-87
2023/06/08 14:04:45;;;;;;;7.80;7.05;;;;;;;22.78;100.00;100032.03;6698653;26;34319;-87
2023/06/08 14:07:48;;;;;;;7.53;6.72;;;;;;;23.19;100.00;100033.97;6695115;26;33899;-87
2023/06/08 14:10:52;;;;;;;9.88;7.20;;;;;;;23.48;100.00;100028.06;6695087;26;34495;-87
2023/06/08 14:13:55;;;;;;;7.45;5.90;;;;;;;23.68;100.00;100025.88;6694038;26;34609;-87
2023/06/08 14:16:58;;;;;;;8.43;6.70;;;;;;;23.68;100.00;100020.47;6695474;26;34012;-87
2023/06/08 14:20:00;;;;;;;9.55;7.57;;;;;;;23.88;100.00;100014.66;6694602;26;33841;-87
2023/06/08 14:23:03;;;;;;;9.98;7.65;;;;;;;23.88;100.00;100005.72;6695639;26;34195;-90
2023/06/08 14:26:06;;;;;;;7.37;6.78;;;;;;;23.44;100.00;100009.66;6694144;26;35364;-91
2023/06/08 14:29:09;;;;;;;9.65;7.72;;;;;;;23.53;100.00;100000.53;6694952;26;35384;-91
2023/06/08 14:32:13;;;;;;;8.70;7.25;;;;;;;23.50;100.00;99996.28;6692058;26;34068;-87
2023/06/08 14:35:15;;;;;;;10.65;7.10;;;;;;;23.74;100.00;99983.72;6692006;26;33674;-86
2023/06/08 14:38:18;;;;;;;8.40;7.10;;;;;;;24.11;100.00;99994.13;6692270;26;34353;-85
2023/06/08 14:41:22;;;;;;;7.85;7.10;;;;;;;24.30;100.00;99995.59;6691246;26;33536;-85
2023/06/08 14:44:25;;;;;;;7.37;6.68;;;;;;;24.48;100.00;99998.91;6690273;26;33845;-86
2023/06/08 14:47:28;;;;;;;7.50;6.80;;;;;;;24.62;100.00;100004.59;6690857;26;34839;-85
2023/06/08 14:50:31;;;;;;;8.98;7.40;;;;;;;24.61;100.00;100005.63;6690721;26;33802;-86
2023/06/08 14:53:34;;;;;;;7.97;7.00;;;;;;;24.52;100.00;100006.66;6690722;26;34276;-86
2023/06/08 14:56:37;;;;;;;8.73;6.62;;;;;;;24.08;100.00;99996.19;6691025;26;33473;-86
2023/06/08 14:59:40;;;;;;;8.32;7.07;;;;;;;24.33;100.00;99987.09;6690456;26;34595;-85
2023/06/08 15:02:42;;;;;;;10.70;7.47;;;;;;;24.20;100.00;99987.69;6691560;26;33713;-84
2023/06/08 15:05:46;;;;;;;7.75;6.53;;;;;;;24.15;100.00;99973.81;6695040;26;33446;-85
2023/06/08 15:08:49;;;;;;;6.97;6.37;;;;;;;24.21;100.00;99973.97;6697693;26;33983;-85
2023/06/08 15:11:52;;;;;;;7.45;6.57;;;;;;;24.55;100.00;99965.66;6691997;26;34812;-85
2023/06/08 15:14:57;;;;;;;7.37;6.75;;;;;;;24.53;100.00;99960.41;6692637;26;34582;-85
2023/06/08 15:18:00;;;;;;;6.97;6.25;;;;;;;24.60;100.00;99964.09;6701407;26;36535;-85
2023/06/08 15:21:02;;;;;;;6.60;6.00;;;;;;;24.74;100.00;99956.25;6704117;26;34419;-85
2023/06/08 15:24:06;;;;;;;6.70;6.10;;;;;;;24.77;100.00;99951.28;6692475;26;33833;-85
2023/06/08 15:27:08;;;;;;;6.60;6.00;;;;;;;24.72;100.00;99952.84;6700538;26;34113;-85
2023/06/08 15:30:11;;;;;;;7.62;6.00;;;;;;;24.50;100.00;99960.78;6704227;26;33594;-85
2023/06/08 15:33:14;;;;;;;7.25;6.10;;;;;;;24.01;100.00;99959.09;6692799;26;34350;-86
2023/06/08 15:36:17;;;;;;;6.55;5.87;;;;;;;23.71;100.00;99956.13;6690791;26;34563;-86
2023/06/08 15:39:20;;;;;;;6.12;5.10;;;;;;;23.63;100.00;99963.28;6690555;26;33864;-85
2023/06/08 15:42:23;;;;;;;5.32;4.93;;;;;;;23.57;100.00;99966.66;6691405;26;33928;-86
2023/06/08 15:45:32;;;;;;;5.10;4.47;;;;;;;23.30;100.00;99966.00;6690368;26;32345;-86
2023/06/08 15:48:35;;;;;;;6.87;4.80;;;;;;;23.37;100.00;99968.88;6689829;26;33923;-85
2023/06/08 15:51:42;;;;;;;4.32;3.97;;;;;;;23.07;100.00;99969.38;6690356;26;34837;-85
